Observation data for Northfield on 10/18/2020      Previous  Date       Current Mesonet Observations  Soil Data  Daily Summary Page  Observations in Plain Language
KNOR 180500Z 21015G22KT 22/02 A2976 RMK A01 T02230016  RH  026%=      5-min Rain = 0
KNOR 180505Z 21013G18KT 23/02 A2976 RMK A01 T02250019  RH  026%=      5-min Rain = 0
KNOR 180510Z 21013G18KT 23/02 A2976 RMK A01 T02260022  RH  027%=      5-min Rain = 0
KNOR 180515Z 22013KT 23/02 A2976 RMK A01 T02270024  RH  027%=      5-min Rain = 0
KNOR 180520Z 22014KT 23/03 A2976 RMK A01 T02270027  RH  027%=      5-min Rain = 0
KNOR 180525Z 22014G19KT 23/03 A2976 RMK A01 T02280029  RH  027%=      5-min Rain = 0
KNOR 180530Z 21014G19KT 23/03 A2976 RMK A01 T02290031  RH  028%=      5-min Rain = 0
KNOR 180535Z 21015KT 23/03 A2976 RMK A01 T02300032  RH  028%=      5-min Rain = 0
KNOR 180540Z 21014G19KT 23/03 A2976 RMK A01 T02310033  RH  028%=      5-min Rain = 0
KNOR 180545Z 21015KT 23/03 A2976 RMK A01 T02300034  RH  028%=      5-min Rain = 0
KNOR 180550Z 21015G20KT 23/04 A2976 RMK A01 T02300037  RH  029%=      5-min Rain = 0
KNOR 180555Z 21017KT 23/04 A2976 RMK A01 T02300041  RH  030%=      5-min Rain = 0
KNOR 180600Z 21015G21KT 23/05 A2975 RMK A01 T02280045  RH  031%=      5-min Rain = 0
KNOR 180605Z 22015G20KT 23/05 A2975 RMK A01 T02280049  RH  032%=      5-min Rain = 0
KNOR 180610Z 21016KT 23/05 A2975 RMK A01 T02280053  RH  033%=      5-min Rain = 0
KNOR 180615Z 22015G22KT 23/06 A2976 RMK A01 T02270055  RH  034%=      5-min Rain = 0
KNOR 180620Z 22017G23KT 23/06 A2975 RMK A01 T02260057  RH  034%=      5-min Rain = 0
KNOR 180625Z 22016G24KT 23/06 A2975 RMK A01 T02260060  RH  035%=      5-min Rain = 0
KNOR 180630Z 22016G23KT 23/06 A2975 RMK A01 T02250062  RH  036%=      5-min Rain = 0
KNOR 180635Z 22016G22KT 22/06 A2975 RMK A01 T02240064  RH  036%=      5-min Rain = 0
KNOR 180640Z 22014G20KT 22/07 A2975 RMK A01 T02230065  RH  037%=      5-min Rain = 0
KNOR 180645Z 22015G20KT 22/07 A2975 RMK A01 T02230067  RH  037%=      5-min Rain = 0
KNOR 180650Z 22015KT 22/07 A2975 RMK A01 T02220068  RH  038%=      5-min Rain = 0
KNOR 180655Z 22015KT 22/07 A2975 RMK A01 T02220069  RH  038%=      5-min Rain = 0
KNOR 180700Z 23013G18KT 22/07 A2975 RMK A01 T02210068  RH  038%=      5-min Rain = 0
KNOR 180705Z 22014G19KT 22/07 A2975 RMK A01 T02190068  RH  039%=      5-min Rain = 0
KNOR 180710Z 22012G18KT 22/07 A2975 RMK A01 T02190069  RH  039%=      5-min Rain = 0
KNOR 180715Z 23013G19KT 22/07 A2975 RMK A01 T02200071  RH  039%=      5-min Rain = 0
KNOR 180720Z 22015G21KT 22/07 A2975 RMK A01 T02210072  RH  039%=      5-min Rain = 0
KNOR 180725Z 22013G18KT 22/07 A2975 RMK A01 T02200073  RH  040%=      5-min Rain = 0
KNOR 180730Z 22014KT 22/07 A2975 RMK A01 T02190074  RH  040%=      5-min Rain = 0
KNOR 180735Z 22013G18KT 22/07 A2975 RMK A01 T02180074  RH  041%=      5-min Rain = 0
KNOR 180740Z 23011KT 22/08 A2975 RMK A01 T02150075  RH  042%=      5-min Rain = 0
KNOR 180745Z 23011KT 21/08 A2975 RMK A01 T02140075  RH  042%=      5-min Rain = 0
KNOR 180750Z 23010KT 21/08 A2975 RMK A01 T02130075  RH  042%=      5-min Rain = 0
KNOR 180755Z 23011KT 21/08 A2976 RMK A01 T02110075  RH  043%=      5-min Rain = 0
KNOR 180800Z 24010KT 21/08 A2976 RMK A01 T02110075  RH  043%=      5-min Rain = 0
KNOR 180805Z 24010G15KT 21/08 A2976 RMK A01 T02090075  RH  043%=      5-min Rain = 0
KNOR 180810Z 23010KT 21/08 A2976 RMK A01 T02070075  RH  044%=      5-min Rain = 0
KNOR 180815Z 24010KT 21/08 A2976 RMK A01 T02050075  RH  044%=      5-min Rain = 0
KNOR 180820Z 23009KT 20/07 A2977 RMK A01 T02040074  RH  044%=      5-min Rain = 0
KNOR 180825Z 23010KT 21/07 A2977 RMK A01 T02050074  RH  044%=      5-min Rain = 0
KNOR 180830Z 23010KT 20/07 A2977 RMK A01 T02020073  RH  044%=      5-min Rain = 0
KNOR 180835Z 23010KT 20/07 A2977 RMK A01 T01990073  RH  045%=      5-min Rain = 0
KNOR 180840Z 22009KT 20/07 A2977 RMK A01 T01980072  RH  045%=      5-min Rain = 0
KNOR 180845Z 22010KT 20/07 A2977 RMK A01 T01970071  RH  045%=      5-min Rain = 0
KNOR 180850Z 22010KT 20/07 A2977 RMK A01 T02000069  RH  044%=      5-min Rain = 0
KNOR 180855Z 22010KT 20/07 A2977 RMK A01 T02010067  RH  043%=      5-min Rain = 0
KNOR 180900Z 22010KT 20/07 A2977 RMK A01 T01990066  RH  043%=      5-min Rain = 0
KNOR 180905Z 23009G14KT 20/07 A2977 RMK A01 T01980065  RH  043%=      5-min Rain = 0
KNOR 180910Z 23010G15KT 20/06 A2977 RMK A01 T01980063  RH  042%=      5-min Rain = 0
KNOR 180915Z 23010KT 19/06 A2977 RMK A01 T01940062  RH  043%=      5-min Rain = 0
KNOR 180920Z 23009KT 19/06 A2977 RMK A01 T01920061  RH  043%=      5-min Rain = 0
KNOR 180925Z 23009KT 19/06 A2977 RMK A01 T01910060  RH  043%=      5-min Rain = 0
KNOR 180930Z 23008KT 19/06 A2977 RMK A01 T01890059  RH  043%=      5-min Rain = 0
KNOR 180935Z 23007KT 18/06 A2978 RMK A01 T01840058  RH  044%=      5-min Rain = 0
KNOR 180940Z 24006KT 18/06 A2978 RMK A01 T01820057  RH  045%=      5-min Rain = 0
KNOR 180945Z 26005KT 18/06 A2979 RMK A01 T01760056  RH  046%=      5-min Rain = 0
KNOR 180950Z 28006KT 17/06 A2979 RMK A01 T01690057  RH  049%=      5-min Rain = 0
KNOR 180955Z 27006KT 17/06 A2979 RMK A01 T01650058  RH  050%=      5-min Rain = 0
KNOR 181000Z 27007KT 16/06 A2979 RMK A01 T01600058  RH  052%=      5-min Rain = 0
KNOR 181005Z 27007KT 16/06 A2979 RMK A01 T01580056  RH  052%=      5-min Rain = 0
KNOR 181010Z 27007KT 16/06 A2979 RMK A01 T01570056  RH  052%=      5-min Rain = 0
KNOR 181015Z 28008KT 16/05 A298 RMK A01 T01600052  RH  050%=      5-min Rain = 0
KNOR 181020Z 27008KT 16/05 A298 RMK A01 T01630049  RH  048%=      5-min Rain = 0
KNOR 181025Z 25009KT 16/05 A2979 RMK A01 T01590047  RH  048%=      5-min Rain = 0
KNOR 181030Z 25009KT 17/04 A2979 RMK A01 T01670042  RH  044%=      5-min Rain = 0
KNOR 181035Z 25009KT 17/04 A298 RMK A01 T01670042  RH  044%=      5-min Rain = 0
KNOR 181040Z 25009KT 16/04 A298 RMK A01 T01630041  RH  045%=      5-min Rain = 0
KNOR 181045Z 25009KT 16/04 A298 RMK A01 T01640039  RH  044%=      5-min Rain = 0
KNOR 181050Z 26009KT 16/04 A298 RMK A01 T01640035  RH  043%=      5-min Rain = 0
KNOR 181055Z 25011KT 17/03 A298 RMK A01 T01690028  RH  039%=      5-min Rain = 0
KNOR 181100Z 25009KT 17/03 A298 RMK A01 T01660026  RH  039%=      5-min Rain = 0
KNOR 181105Z 26009KT 16/02 A298 RMK A01 T01640022  RH  039%=      5-min Rain = 0
KNOR 181110Z 26010KT 16/02 A298 RMK A01 T01630017  RH  038%=      5-min Rain = 0
KNOR 181115Z 27008KT 16/01 A2981 RMK A01 T01580014  RH  038%=      5-min Rain = 0
KNOR 181120Z 28007KT 15/01 A2982 RMK A01 T01510014  RH  040%=      5-min Rain = 0
KNOR 181125Z 28008KT 15/01 A2982 RMK A01 T01450012  RH  041%=      5-min Rain = 0
KNOR 181130Z 29009KT 15/01 A2983 RMK A01 T01450005  RH  039%=      5-min Rain = 0
KNOR 181135Z 30009KT 15/00 A2983 RMK A01 T01460002  RH  038%=      5-min Rain = 0
KNOR 181140Z 30009KT 14/00 A2983 RMK A01 T014300-0  RH  038%=      5-min Rain = 0
KNOR 181145Z 31009KT 15/M01 A2983 RMK A01 T01451007  RH  036%=      5-min Rain = 0
KNOR 181150Z 31010G15KT 15/M02 A2983 RMK A01 T01531017  RH  031%=      5-min Rain = 0
KNOR 181155Z 31012G17KT 16/M03 A2984 RMK A01 T01611028  RH  027%=      5-min Rain = 0
KNOR 181200Z 31014G19KT 16/M03 A2985 RMK A01 T01631031  RH  026%=      5-min Rain = 0
KNOR 181205Z 31013G19KT 16/M02 A2985 RMK A01 T01601024  RH  029%=      5-min Rain = 0
KNOR 181210Z 31013G20KT 16/M01 A2985 RMK A01 T01571011  RH  032%=      5-min Rain = 0
KNOR 181215Z 32011G16KT 15/M00 A2986 RMK A01 T01521002  RH  035%=      5-min Rain = 0
KNOR 181220Z 32013G19KT 15/01 A2986 RMK A01 T01510009  RH  039%=      5-min Rain = 0
KNOR 181225Z 31012KT 15/02 A2986 RMK A01 T01490018  RH  042%=      5-min Rain = 0
KNOR 181230Z 32010G15KT 15/02 A2986 RMK A01 T01460021  RH  044%=      5-min Rain = 0
KNOR 181235Z 32008KT 14/03 A2987 RMK A01 T01420026  RH  046%=      5-min Rain = 0
KNOR 181240Z 31010KT 14/04 A2987 RMK A01 T01420039  RH  051%=      5-min Rain = 0
KNOR 181245Z 31009KT 14/04 A2987 RMK A01 T01410043  RH  053%=      5-min Rain = 0
KNOR 181250Z 31010G16KT 14/05 A2987 RMK A01 T01400046  RH  054%=      5-min Rain = 0
KNOR 181255Z 32010G15KT 14/05 A2988 RMK A01 T01400048  RH  055%=      5-min Rain = 0
KNOR 181300Z 33009KT 14/05 A2988 RMK A01 T01370048  RH  056%=      5-min Rain = 0
KNOR 181305Z 33009KT 14/05 A2989 RMK A01 T01370050  RH  057%=      5-min Rain = 0
KNOR 181310Z 33011KT 14/05 A299 RMK A01 T01360051  RH  058%=      5-min Rain = 0
KNOR 181315Z 34012KT 14/05 A299 RMK A01 T01360054  RH  059%=      5-min Rain = 0
KNOR 181320Z 34013G21KT 14/06 A299 RMK A01 T01350059  RH  061%=      5-min Rain = 0
KNOR 181325Z 34012G17KT 14/06 A2991 RMK A01 T01370064  RH  063%=      5-min Rain = 0
KNOR 181330Z 33010G15KT 14/07 A2991 RMK A01 T01370068  RH  064%=      5-min Rain = 0
KNOR 181335Z 33011G16KT 14/07 A2992 RMK A01 T01370071  RH  066%=      5-min Rain = 0
KNOR 181340Z 33012G17KT 14/07 A2992 RMK A01 T01370071  RH  066%=      5-min Rain = 0
KNOR 181345Z 32011G16KT 14/07 A2993 RMK A01 T01380072  RH  066%=      5-min Rain = 0
KNOR 181350Z 32010G15KT 14/08 A2993 RMK A01 T01390076  RH  068%=      5-min Rain = 0
KNOR 181355Z 32009KT 14/08 A2994 RMK A01 T01400079  RH  069%=      5-min Rain = 0
KNOR 181400Z 32009G14KT 14/08 A2994 RMK A01 T01410081  RH  069%=      5-min Rain = 0
KNOR 181405Z 32010KT 14/08 A2995 RMK A01 T01420084  RH  070%=      5-min Rain = 0
KNOR 181410Z 32011KT 14/09 A2995 RMK A01 T01430086  RH  071%=      5-min Rain = 0
KNOR 181415Z 32010KT 15/09 A2995 RMK A01 T01450090  RH  072%=      5-min Rain = 0
KNOR 181420Z 32009KT 15/09 A2996 RMK A01 T01460092  RH  072%=      5-min Rain = 0
KNOR 181425Z 33009KT 15/09 A2996 RMK A01 T01470094  RH  073%=      5-min Rain = 0
KNOR 181430Z 33010KT 15/10 A2996 RMK A01 T01490098  RH  074%=      5-min Rain = 0
KNOR 181435Z 34012G17KT 15/11 A2996 RMK A01 T01530105  RH  076%=      5-min Rain = 0
KNOR 181440Z 35016G21KT 16/12 A2997 RMK A01 T01590116  RH  079%=      5-min Rain = 0
KNOR 181445Z 36015G21KT 16/12 A2997 RMK A01 T01590116  RH  078%=      5-min Rain = 0
KNOR 181450Z 36018G23KT 15/11 A2998 RMK A01 T01530111  RH  078%=      5-min Rain = 0
KNOR 181455Z 35016G23KT 15/11 A2999 RMK A01 T01510109  RH  079%=      5-min Rain = 0
KNOR 181500Z 35016G21KT 15/11 A30 RMK A01 T01510108  RH  078%=      5-min Rain = 0
KNOR 181505Z 35016G21KT 15/11 A30 RMK A01 T01490106  RH  078%=      5-min Rain = 0
KNOR 181510Z 35016G22KT 15/10 A3001 RMK A01 T01460103  RH  078%=      5-min Rain = 0
KNOR 181515Z 36016G24KT 15/10 A3001 RMK A01 T01460101  RH  077%=      5-min Rain = 0
KNOR 181520Z 35017G24KT 14/10 A3001 RMK A01 T01440097  RH  076%=      5-min Rain = 0
KNOR 181525Z 36017G22KT 14/09 A3002 RMK A01 T01400094  RH  076%=      5-min Rain = 0
KNOR 181530Z 35017G25KT 14/09 A3002 RMK A01 T01400091  RH  075%=      5-min Rain = 0
KNOR 181535Z 00017G23KT 14/09 A3003 RMK A01 T01350086  RH  074%=      5-min Rain = 0
KNOR 181540Z 36015G21KT 14/09 A3003 RMK A01 T01360085  RH  073%=      5-min Rain = 0
KNOR 181545Z 35017G22KT 13/08 A3004 RMK A01 T01330079  RH  072%=      5-min Rain = 0
KNOR 181550Z 36017G26KT 13/08 A3004 RMK A01 T01290075  RH  072%=      5-min Rain = 0
KNOR 181555Z 36018G25KT 13/07 A3005 RMK A01 T01250074  RH  073%=      5-min Rain = 0
KNOR 181600Z 36015G22KT 13/07 A3005 RMK A01 T01260073  RH  072%=      5-min Rain = 0
KNOR 181605Z 36014G19KT 13/07 A3005 RMK A01 T01290073  RH  070%=      5-min Rain = 0
KNOR 181610Z 36016G22KT 13/07 A3005 RMK A01 T01280070  RH  069%=      5-min Rain = 0
KNOR 181615Z 00018G24KT 13/07 A3005 RMK A01 T01250069  RH  071%=      5-min Rain = 0
KNOR 181620Z 00016G22KT 12/07 A3006 RMK A01 T01240067  RH  070%=      5-min Rain = 0
KNOR 181625Z 00016KT 12/07 A3006 RMK A01 T01240066  RH  069%=      5-min Rain = 0
KNOR 181630Z 35016G21KT 13/06 A3006 RMK A01 T01250062  RH  067%=      5-min Rain = 0
KNOR 181635Z 35016G25KT 12/06 A3006 RMK A01 T01230061  RH  067%=      5-min Rain = 0
KNOR 181640Z 35017G24KT 12/06 A3007 RMK A01 T01200059  RH  068%=      5-min Rain = 0
KNOR 181645Z 36014G19KT 12/06 A3007 RMK A01 T01210059  RH  067%=      5-min Rain = 0
KNOR 181650Z 35018G25KT 12/06 A3007 RMK A01 T01190057  RH  067%=      5-min Rain = 0
KNOR 181655Z 35017G25KT 12/06 A3008 RMK A01 T01150056  RH  069%=      5-min Rain = 0
KNOR 181700Z 00018G23KT 12/06 A3007 RMK A01 T01160056  RH  068%=      5-min Rain = 0
KNOR 181705Z 35017G22KT 12/05 A3008 RMK A01 T01160054  RH  067%=      5-min Rain = 0
KNOR 181710Z 35016G23KT 12/05 A3008 RMK A01 T01170054  RH  067%=      5-min Rain = 0
KNOR 181715Z 36017G22KT 12/05 A3008 RMK A01 T01150053  RH  067%=      5-min Rain = 0
KNOR 181720Z 34015G21KT 12/05 A3008 RMK A01 T01180053  RH  066%=      5-min Rain = 0
KNOR 181725Z 36014G20KT 12/05 A3008 RMK A01 T01190052  RH  065%=      5-min Rain = 0
KNOR 181730Z 35016G21KT 12/05 A3008 RMK A01 T01190051  RH  064%=      5-min Rain = 0
KNOR 181735Z 36015G21KT 12/05 A3008 RMK A01 T01170050  RH  065%=      5-min Rain = 0
KNOR 181740Z 36016G21KT 12/05 A3009 RMK A01 T01170048  RH  064%=      5-min Rain = 0
KNOR 181745Z 35016G25KT 12/05 A3009 RMK A01 T01170047  RH  064%=      5-min Rain = 0
KNOR 181750Z 35016G21KT 12/05 A3009 RMK A01 T01160047  RH  064%=      5-min Rain = 0
KNOR 181755Z 35014G21KT 12/05 A3009 RMK A01 T01190047  RH  063%=      5-min Rain = 0
KNOR 181800Z 34016G22KT 12/05 A3009 RMK A01 T01180047  RH  063%=      5-min Rain = 0
KNOR 181805Z 34016G22KT 12/05 A3009 RMK A01 T01200046  RH  062%=      5-min Rain = 0
KNOR 181810Z 36018G24KT 12/05 A3008 RMK A01 T01220046  RH  061%=      5-min Rain = 0
KNOR 181815Z 35017G23KT 12/05 A3008 RMK A01 T01220045  RH  061%=      5-min Rain = 0
KNOR 181820Z 35015G22KT 13/05 A3008 RMK A01 T01270046  RH  059%=      5-min Rain = 0
KNOR 181825Z 35015G21KT 13/05 A3008 RMK A01 T01250045  RH  059%=      5-min Rain = 0
KNOR 181830Z 35016G21KT 12/04 A3008 RMK A01 T01220044  RH  060%=      5-min Rain = 0
KNOR 181835Z 34014G19KT 12/04 A3008 RMK A01 T01210043  RH  060%=      5-min Rain = 0
KNOR 181840Z 36015G22KT 12/04 A3008 RMK A01 T01220043  RH  060%=      5-min Rain = 0
KNOR 181845Z 35016G21KT 12/04 A3008 RMK A01 T01200042  RH  060%=      5-min Rain = 0
KNOR 181850Z 35017G23KT 12/04 A3009 RMK A01 T01180042  RH  061%=      5-min Rain = 0
KNOR 181855Z 36013G19KT 12/04 A3009 RMK A01 T01200042  RH  060%=      5-min Rain = 0
KNOR 181900Z 36013G20KT 12/04 A3008 RMK A01 T01210041  RH  059%=      5-min Rain = 0
KNOR 181905Z 35013G19KT 12/04 A3008 RMK A01 T01200041  RH  059%=      5-min Rain = 0
KNOR 181910Z 35014G21KT 12/04 A3008 RMK A01 T01190040  RH  060%=      5-min Rain = 0
KNOR 181915Z 35014G19KT 12/04 A3008 RMK A01 T01170040  RH  060%=      5-min Rain = 0
KNOR 181920Z 35014G19KT 12/04 A3008 RMK A01 T01170041  RH  060%=      5-min Rain = 0
KNOR 181925Z 35014KT 12/04 A3008 RMK A01 T01170040  RH  060%=      5-min Rain = 0
KNOR 181930Z 35012G17KT 12/04 A3008 RMK A01 T01180041  RH  060%=      5-min Rain = 0
KNOR 181935Z 35012KT 12/04 A3008 RMK A01 T01200041  RH  059%=      5-min Rain = 0
KNOR 181940Z 35012G18KT 12/04 A3007 RMK A01 T01190039  RH  059%=      5-min Rain = 0
KNOR 181945Z 00012G18KT 12/04 A3007 RMK A01 T01210040  RH  059%=      5-min Rain = 0
KNOR 181950Z 00013G18KT 12/04 A3007 RMK A01 T01220039  RH  058%=      5-min Rain = 0
KNOR 181955Z 01013G18KT 12/04 A3007 RMK A01 T01230038  RH  057%=      5-min Rain = 0
KNOR 182000Z 01012G17KT 12/04 A3007 RMK A01 T01220037  RH  057%=      5-min Rain = 0
KNOR 182005Z 01015KT 12/04 A3006 RMK A01 T01210038  RH  058%=      5-min Rain = 0
KNOR 182010Z 02013G19KT 12/04 A3006 RMK A01 T01190037  RH  059%=      5-min Rain = 0
KNOR 182015Z 35011G17KT 12/04 A3006 RMK A01 T01210036  RH  057%=      5-min Rain = 0
KNOR 182020Z 01013G18KT 12/04 A3006 RMK A01 T01230036  RH  056%=      5-min Rain = 0
KNOR 182025Z 01013G18KT 12/04 A3006 RMK A01 T01210036  RH  057%=      5-min Rain = 0
KNOR 182030Z 00011G17KT 13/04 A3006 RMK A01 T01260038  RH  056%=      5-min Rain = 0
KNOR 182035Z 01013KT 12/04 A3006 RMK A01 T01240036  RH  056%=      5-min Rain = 0
KNOR 182040Z 02013G20KT 12/04 A3006 RMK A01 T01210036  RH  057%=      5-min Rain = 0
KNOR 182045Z 01014G19KT 12/04 A3006 RMK A01 T01170035  RH  058%=      5-min Rain = 0
KNOR 182050Z 01011G17KT 12/04 A3006 RMK A01 T01190036  RH  058%=      5-min Rain = 0
KNOR 182055Z 01015KT 12/04 A3006 RMK A01 T01200035  RH  057%=      5-min Rain = 0
KNOR 182100Z 01016KT 12/04 A3006 RMK A01 T01190035  RH  058%=      5-min Rain = 0
KNOR 182105Z 01014G20KT 12/04 A3006 RMK A01 T01190035  RH  057%=      5-min Rain = 0
KNOR 182110Z 02015G20KT 12/04 A3007 RMK A01 T01150035  RH  059%=      5-min Rain = 0
KNOR 182115Z 01015KT 11/03 A3007 RMK A01 T01140034  RH  059%=      5-min Rain = 0
KNOR 182120Z 00014G19KT 11/03 A3007 RMK A01 T01130034  RH  059%=      5-min Rain = 0
KNOR 182125Z 02013KT 11/03 A3007 RMK A01 T01130033  RH  059%=      5-min Rain = 0
KNOR 182130Z 02014G19KT 11/03 A3007 RMK A01 T01130032  RH  059%=      5-min Rain = 0
KNOR 182135Z 01013G18KT 11/03 A3007 RMK A01 T01110032  RH  059%=      5-min Rain = 0
KNOR 182140Z 01014G19KT 11/03 A3007 RMK A01 T01090033  RH  060%=      5-min Rain = 0
KNOR 182145Z 01014KT 11/03 A3008 RMK A01 T01070032  RH  061%=      5-min Rain = 0
KNOR 182150Z 00013G19KT 11/03 A3008 RMK A01 T01060032  RH  061%=      5-min Rain = 0
KNOR 182155Z 01012G17KT 11/03 A3008 RMK A01 T01050031  RH  061%=      5-min Rain = 0
KNOR 182200Z 01012G17KT 11/03 A3008 RMK A01 T01060029  RH  060%=      5-min Rain = 0
KNOR 182205Z 00011KT 11/03 A3008 RMK A01 T01070029  RH  060%=      5-min Rain = 0
KNOR 182210Z 01012G18KT 11/03 A3008 RMK A01 T01070028  RH  059%=      5-min Rain = 0
KNOR 182215Z 01013G19KT 11/03 A3008 RMK A01 T01050027  RH  060%=      5-min Rain = 0
KNOR 182220Z 02012G17KT 10/03 A3008 RMK A01 T01020027  RH  060%=      5-min Rain = 0
KNOR 182225Z 01014KT 10/03 A3009 RMK A01 T01010027  RH  061%=      5-min Rain = 0
KNOR 182230Z 01014KT 10/03 A3009 RMK A01 T00980027  RH  062%=      5-min Rain = 0
KNOR 182235Z 01012KT 10/03 A3009 RMK A01 T00970028  RH  063%=      5-min Rain = 0
KNOR 182240Z 00009G14KT 10/03 A3009 RMK A01 T00990028  RH  062%=      5-min Rain = 0
KNOR 182245Z 01011G16KT 10/03 A3009 RMK A01 T00980026  RH  062%=      5-min Rain = 0
KNOR 182250Z 02011G16KT 10/03 A3009 RMK A01 T00950026  RH  063%=      5-min Rain = 0
KNOR 182255Z 01011KT 09/03 A3009 RMK A01 T00940026  RH  064%=      5-min Rain = 0
KNOR 182300Z 02013KT 09/03 A3009 RMK A01 T00910026  RH  065%=      5-min Rain = 0
KNOR 182305Z 01014KT 09/03 A3009 RMK A01 T00890027  RH  066%=      5-min Rain = 0
KNOR 182310Z 01013KT 09/03 A3009 RMK A01 T00880026  RH  066%=      5-min Rain = 0
KNOR 182315Z 01011G16KT 09/03 A3009 RMK A01 T00880026  RH  066%=      5-min Rain = 0
KNOR 182320Z 01011KT 09/03 A3009 RMK A01 T00880025  RH  066%=      5-min Rain = 0
KNOR 182325Z 02009G14KT 09/03 A3009 RMK A01 T00880025  RH  066%=      5-min Rain = 0
KNOR 182330Z 01013KT 09/03 A301 RMK A01 T00880026  RH  066%=      5-min Rain = 0
KNOR 182335Z 02012G17KT 09/03 A301 RMK A01 T00850026  RH  067%=      5-min Rain = 0
KNOR 182340Z 02011KT 09/02 A301 RMK A01 T00850024  RH  067%=      5-min Rain = 0
KNOR 182345Z 02011G16KT 09/02 A301 RMK A01 T00850024  RH  067%=      5-min Rain = 0
KNOR 182350Z 02011KT 09/02 A301 RMK A01 T00850024  RH  067%=      5-min Rain = 0
KNOR 182355Z 01011KT 09/02 A301 RMK A01 T00850024  RH  067%=      5-min Rain = 0
KNOR 190000Z 01011KT 08/02 A301 RMK A01 T00840023  RH  067%=      5-min Rain = 0
KNOR 190005Z 02011KT 08/02 A301 RMK A01 T00820023  RH  068%=      5-min Rain = 0
KNOR 190010Z 02010KT 08/02 A301 RMK A01 T00810023  RH  068%=      5-min Rain = 0
KNOR 190015Z 02009G14KT 08/02 A301 RMK A01 T00810022  RH  068%=      5-min Rain = 0
KNOR 190020Z 02010KT 08/02 A301 RMK A01 T00800023  RH  068%=      5-min Rain = 0
KNOR 190025Z 02008G13KT 08/02 A301 RMK A01 T00800023  RH  068%=      5-min Rain = 0
KNOR 190030Z 01010KT 08/02 A301 RMK A01 T00800022  RH  068%=      5-min Rain = 0
KNOR 190035Z 01010G15KT 08/02 A301 RMK A01 T00800022  RH  068%=      5-min Rain = 0
KNOR 190040Z 01012KT 08/02 A301 RMK A01 T00790022  RH  069%=      5-min Rain = 0
KNOR 190045Z 01011KT 08/02 A3011 RMK A01 T00780023  RH  069%=      5-min Rain = 0
KNOR 190050Z 02012KT 08/02 A3011 RMK A01 T00770023  RH  069%=      5-min Rain = 0
KNOR 190055Z 02011KT 08/02 A3011 RMK A01 T00770022  RH  069%=      5-min Rain = 0
KNOR 190100Z 02010KT 08/02 A3011 RMK A01 T00770022  RH  069%=      5-min Rain = 0
KNOR 190105Z 02009KT 08/02 A3012 RMK A01 T00770022  RH  069%=      5-min Rain = 0
KNOR 190110Z 02008KT 08/02 A3012 RMK A01 T00780022  RH  069%=      5-min Rain = 0
KNOR 190115Z 02008KT 08/02 A3012 RMK A01 T00780022  RH  069%=      5-min Rain = 0
KNOR 190120Z 01008KT 08/02 A3012 RMK A01 T00780022  RH  069%=      5-min Rain = 0
KNOR 190125Z 01009KT 08/02 A3012 RMK A01 T00780022  RH  069%=      5-min Rain = 0
KNOR 190130Z 02008KT 08/02 A3012 RMK A01 T00770022  RH  069%=      5-min Rain = 0
KNOR 190135Z 02008KT 08/02 A3012 RMK A01 T00760022  RH  069%=      5-min Rain = 0
KNOR 190140Z 01010KT 08/02 A3012 RMK A01 T00760022  RH  070%=      5-min Rain = 0
KNOR 190145Z 01010KT 08/02 A3012 RMK A01 T00750023  RH  070%=      5-min Rain = 0
KNOR 190150Z 01010KT 08/02 A3012 RMK A01 T00750023  RH  070%=      5-min Rain = 0
KNOR 190155Z 02008KT 08/02 A3012 RMK A01 T00750023  RH  070%=      5-min Rain = 0
KNOR 190200Z 02007KT 08/02 A3012 RMK A01 T00750023  RH  070%=      5-min Rain = 0
KNOR 190205Z 01008KT 08/02 A3012 RMK A01 T00760022  RH  070%=      5-min Rain = 0
KNOR 190210Z 01008KT 08/02 A3012 RMK A01 T00760022  RH  070%=      5-min Rain = 0
KNOR 190215Z 01010KT 07/02 A3012 RMK A01 T00740022  RH  071%=      5-min Rain = 0
KNOR 190220Z 02009KT 07/02 A3012 RMK A01 T00730022  RH  071%=      5-min Rain = 0
KNOR 190225Z 02008KT 07/02 A3012 RMK A01 T00740022  RH  071%=      5-min Rain = 0
KNOR 190230Z 02008KT 07/02 A3012 RMK A01 T00740022  RH  071%=      5-min Rain = 0
KNOR 190235Z 02007KT 07/02 A3012 RMK A01 T00740022  RH  071%=      5-min Rain = 0
KNOR 190240Z 01008KT 08/02 A3012 RMK A01 T00750022  RH  071%=      5-min Rain = 0
KNOR 190245Z 01009KT 07/02 A3012 RMK A01 T00740022  RH  071%=      5-min Rain = 0
KNOR 190250Z 01008KT 07/02 A3012 RMK A01 T00740022  RH  071%=      5-min Rain = 0
KNOR 190255Z 02008KT 08/02 A3012 RMK A01 T00750022  RH  071%=      5-min Rain = 0
KNOR 190300Z 02008KT 08/02 A3012 RMK A01 T00750022  RH  071%=      5-min Rain = 0
KNOR 190305Z 02006G11KT 08/02 A3012 RMK A01 T00750022  RH  070%=      5-min Rain = 0
KNOR 190310Z 02007KT 08/02 A3012 RMK A01 T00750022  RH  070%=      5-min Rain = 0
KNOR 190315Z 01007KT 08/02 A3012 RMK A01 T00750022  RH  070%=      5-min Rain = 0
KNOR 190320Z 01007KT 08/02 A3012 RMK A01 T00750022  RH  070%=      5-min Rain = 0
KNOR 190325Z 01008KT 07/02 A3012 RMK A01 T00740021  RH  070%=      5-min Rain = 0
KNOR 190330Z 01008KT 08/02 A3013 RMK A01 T00750021  RH  070%=      5-min Rain = 0
KNOR 190335Z 01007KT 08/02 A3013 RMK A01 T00750021  RH  070%=      5-min Rain = 0
KNOR 190340Z 00007KT 08/02 A3014 RMK A01 T00750021  RH  070%=      5-min Rain = 0
KNOR 190345Z 00008KT 08/02 A3014 RMK A01 T00750021  RH  070%=      5-min Rain = 0
KNOR 190350Z 36009KT 07/02 A3014 RMK A01 T00740020  RH  070%=      5-min Rain = 0
KNOR 190355Z 00009KT 08/02 A3015 RMK A01 T00750020  RH  069%=      5-min Rain = 0
KNOR 190400Z 35008KT 08/02 A3015 RMK A01 T00750020  RH  069%=      5-min Rain = 0
KNOR 190405Z 35007KT 08/02 A3015 RMK A01 T00750020  RH  069%=      5-min Rain = 0
KNOR 190410Z 34008KT 08/02 A3015 RMK A01 T00750021  RH  069%=      5-min Rain = 0
KNOR 190415Z 35008KT 08/02 A3015 RMK A01 T00760021  RH  069%=      5-min Rain = 0
KNOR 190420Z 35007KT 08/02 A3015 RMK A01 T00750021  RH  070%=      5-min Rain = 0
KNOR 190425Z 35009KT 08/02 A3015 RMK A01 T00760020  RH  069%=      5-min Rain = 0
KNOR 190430Z 35009KT 08/02 A3014 RMK A01 T00760020  RH  069%=      5-min Rain = 0
KNOR 190435Z 35009KT 08/02 A3014 RMK A01 T00760019  RH  068%=      5-min Rain = 0
KNOR 190440Z 36008KT 08/02 A3014 RMK A01 T00760018  RH  068%=      5-min Rain = 0
KNOR 190445Z 35009KT 08/02 A3014 RMK A01 T00760018  RH  068%=      5-min Rain = 0
KNOR 190450Z 36009KT 08/02 A3014 RMK A01 T00760019  RH  068%=      5-min Rain = 0
KNOR 190455Z 36008KT 08/02 A3013 RMK A01 T00770019  RH  068%=      5-min Rain = 0

Page generated in 0.0358 seconds.